Pezhoto — LZG2277 — position and weather

sailwx.info

Track history (hours):
 
Tides and Currents Weather Stations Pressure Air Temp Water Temp Dewpoint Dewpoint Depression Visibility Wind Speed Wind Dir Waves Ship Positions

Pezhoto

Last reported at 2018-Apr-14 06:57 UTC. Time now 2018-Jun-20 23:07 UTC.
Position N 43°51' E 023°16'.
Warning: this ship's position is months out of date.

Length 80 m; draft 2.3 m.

Type: Ship (hazmat cat D). MMSI: 207072277.

Date/timePositionNaut miles runAvg speedWind from/ knotsBaromVisibWave heightAir tempDewpointWater temp
2018-Apr-14 06:57N 43°51' E 023°16'4 7.9
2018-Apr-14 06:28N 43°49' E 023°11'4 7.9
2018-Apr-14 05:57N 43°48' E 023°06'4 7.9
2018-Apr-14 05:29N 43°48' E 023°01'4 7.8
2018-Apr-14 05:00N 43°49' E 022°56'4 7.7
2018-Apr-14 04:30N 43°51' E 022°51'3 5.5
2018-Apr-14 03:59N 43°54' E 022°51'0 0.0
2018-Apr-14 03:30N 43°54' E 022°51'0 0.0
2018-Apr-14 02:58N 43°54' E 022°51'0 0.0
2018-Apr-14 02:30N 43°54' E 022°51'0 0.0
2018-Apr-14 02:00N 43°54' E 022°51'0 0.0
2018-Apr-14 01:29N 43°54' E 022°51'0 0.0
2018-Apr-14 01:01N 43°54' E 022°51'0 0.0
2018-Apr-14 00:28N 43°54' E 022°51'0 0.0
2018-Apr-14 00:00N 43°54' E 022°51'0 0.0
2018-Apr-13 23:30N 43°54' E 022°51'0 0.0
2018-Apr-13 22:59N 43°54' E 022°51'0 0.0
2018-Apr-13 22:26N 43°54' E 022°51'0 0.0
2018-Apr-13 22:01N 43°54' E 022°51'0 0.0
2018-Apr-13 21:26N 43°54' E 022°51'0 0.0
2018-Apr-13 21:00N 43°54' E 022°51'0 0.0
2018-Apr-13 20:30N 43°54' E 022°51'0 0.0
2018-Apr-13 20:00N 43°54' E 022°51'0 0.0
2018-Apr-13 19:30N 43°54' E 022°51'0 0.0
2018-Apr-13 18:57N 43°54' E 022°51'0 0.0
2018-Apr-13 18:31N 43°54' E 022°51'0 0.0
2018-Apr-13 17:59N 43°54' E 022°51'0 0.8
2018-Apr-13 17:30N 43°54' E 022°51'4 7.6
2018-Apr-13 17:00N 43°58' E 022°52'3 5.6
2018-Apr-13 16:30N 43°60' E 022°55'0 0.0
2018-Apr-13 16:00N 43°60' E 022°55'0 0.0
2018-Apr-13 15:30N 43°60' E 022°55'0 0.0
2018-Apr-13 15:00N 43°60' E 022°55'0 0.0
2018-Apr-13 14:30N 43°60' E 022°55'0 0.0
2018-Apr-13 14:00N 43°60' E 022°55'0 0.0
2018-Apr-13 13:30N 43°60' E 022°55'0 0.0
2018-Apr-13 13:00N 43°60' E 022°55'0 0.0
2018-Apr-13 12:30N 43°60' E 022°55'0 0.0
2018-Apr-13 12:00N 43°60' E 022°55'0 0.0
2018-Apr-13 11:00N 43°60' E 022°55'0 0.0
2018-Apr-13 10:30N 43°60' E 022°55'0 0.0
2018-Apr-13 09:49N 43°60' E 022°55'0 0.0
2018-Apr-13 09:28N 43°60' E 022°55'0 0.0
2018-Apr-13 09:00N 43°60' E 022°55'0 0.0
2018-Apr-13 08:30N 43°60' E 022°55'0 0.0
2018-Apr-13 07:59N 43°60' E 022°55'0 0.0
2018-Apr-13 07:30N 43°60' E 022°55'0 0.0
2018-Apr-13 07:00N 43°60' E 022°55'0 0.0
2018-Apr-13 06:30N 43°60' E 022°55'0 0.0
2018-Apr-13 06:00N 43°60' E 022°55'0 0.0
2018-Apr-13 05:29N 43°60' E 022°55'0 0.0
2018-Apr-13 05:00N 43°60' E 022°55'0 0.0
2018-Apr-13 04:30N 43°60' E 022°55'0 0.0
2018-Apr-13 04:00N 43°60' E 022°55'0 0.0
2018-Apr-13 03:29N 43°60' E 022°55'0 0.0
2018-Apr-13 03:00N 43°60' E 022°55'0 0.0
2018-Apr-13 02:29N 43°60' E 022°55'0 0.0
2018-Apr-13 02:00N 43°60' E 022°55'0 0.0
2018-Apr-13 01:30N 43°60' E 022°55'0 0.0
2018-Apr-13 00:59N 43°60' E 022°55'0 0.0
2018-Apr-13 00:30N 43°60' E 022°55'0 0.0
2018-Apr-12 23:58N 43°60' E 022°55'0 0.0
2018-Apr-12 23:30N 43°60' E 022°55'0 0.0
2018-Apr-12 22:55N 43°60' E 022°55'0 0.0
2018-Apr-12 22:11N 43°60' E 022°55'0 0.0
2018-Apr-12 21:40N 43°60' E 022°55'0 0.0
2018-Apr-12 21:30N 43°60' E 022°55'0 0.0
2018-Apr-12 21:00N 43°60' E 022°55'0 0.0
2018-Apr-12 20:30N 43°60' E 022°55'0 0.0
2018-Apr-12 20:00N 43°60' E 022°55'0 0.0
2018-Apr-12 19:30N 43°60' E 022°55'0 0.0
2018-Apr-12 19:00N 43°60' E 022°55'0 0.0
2018-Apr-12 18:29N 43°60' E 022°55'0 0.0
2018-Apr-12 18:00N 43°60' E 022°55'0 0.0
2018-Apr-12 17:30N 43°60' E 022°55'0 0.0
2018-Apr-12 17:00N 43°60' E 022°55'0 0.0
2018-Apr-12 16:31N 43°60' E 022°55'0 0.0
2018-Apr-12 16:01N 43°60' E 022°55'0 0.0
2018-Apr-12 15:30N 43°60' E 022°55'0 0.0
2018-Apr-12 15:00N 43°60' E 022°55'0 0.0
2018-Apr-12 14:30N 43°60' E 022°55'0 0.0
2018-Apr-12 14:00N 43°60' E 022°55'0 0.0
2018-Apr-12 13:30N 43°60' E 022°55'0 0.0
2018-Apr-12 13:00N 43°60' E 022°55'0 0.0
2018-Apr-12 12:25N 43°60' E 022°55'0 0.0
2018-Apr-12 11:57N 43°60' E 022°55'0 0.0
2018-Apr-12 11:16N 43°60' E 022°55'0 0.0
2018-Apr-12 11:00N 43°60' E 022°55'0 0.0
2018-Apr-12 10:30N 43°60' E 022°55'0 0.0
2018-Apr-12 10:00N 43°60' E 022°55'0 0.0
2018-Apr-12 09:30N 43°60' E 022°55'0 0.0
2018-Apr-12 09:00N 43°60' E 022°55'0 0.0
2018-Apr-12 08:30N 43°60' E 022°55'0 0.0
2018-Apr-12 08:01N 43°60' E 022°55'0 0.0
2018-Apr-12 07:30N 43°60' E 022°55'0 0.0
2018-Apr-12 07:00N 43°60' E 022°55'0 0.0
2018-Apr-12 06:30N 43°60' E 022°55'0 0.0
2018-Apr-12 06:01N 43°60' E 022°55'0 0.0
2018-Apr-12 05:30N 43°60' E 022°55'0 0.0
2018-Apr-12 05:01N 43°60' E 022°55'0 0.4
2018-Apr-12 04:30N 43°60' E 022°55'0 0.0
2018-Apr-12 04:00N 43°60' E 022°55'0 0.0
2018-Apr-12 03:30N 43°60' E 022°55'0 0.0
2018-Apr-12 03:00N 43°60' E 022°55'0 0.0
2018-Apr-12 02:30N 43°60' E 022°55'0 0.0
2018-Apr-12 02:00N 43°60' E 022°55'0 0.0
2018-Apr-12 01:30N 43°60' E 022°55'0 0.0
2018-Apr-12 01:00N 43°60' E 022°55'0 0.0
2018-Apr-12 00:30N 43°60' E 022°55'0 0.0
2018-Apr-12 00:00N 43°60' E 022°55'0 0.0
2018-Apr-11 23:30N 43°60' E 022°55'0 0.0
2018-Apr-11 23:00N 43°60' E 022°55'0 0.0
2018-Apr-11 22:30N 43°60' E 022°55'0 0.0
2018-Apr-11 22:00N 43°60' E 022°55'0 0.0
2018-Apr-11 21:30N 43°60' E 022°55'0 0.0
2018-Apr-11 20:59N 43°60' E 022°55'0 0.0
2018-Apr-11 20:30N 43°60' E 022°55'0 0.0
2018-Apr-11 20:00N 43°60' E 022°55'0 0.0
2018-Apr-11 19:30N 43°60' E 022°55'0 0.0
2018-Apr-11 19:00N 43°60' E 022°55'0 0.0
2018-Apr-11 18:30N 43°60' E 022°55'0 0.0
2018-Apr-11 18:00N 43°60' E 022°55'0 0.0
2018-Apr-11 17:30N 43°60' E 022°55'0 0.0
2018-Apr-11 17:00N 43°60' E 022°55'0 0.0
2018-Apr-11 16:30N 43°60' E 022°55'0 0.0
2018-Apr-11 15:59N 43°60' E 022°55'0 0.0
2018-Apr-11 15:30N 43°60' E 022°55'0 0.0
2018-Apr-11 14:59N 43°60' E 022°55'0 0.0
2018-Apr-11 14:26N 43°60' E 022°55'0 0.0
2018-Apr-11 13:58N 43°60' E 022°55'0 0.0
2018-Apr-11 13:30N 43°60' E 022°55'0 0.1
2018-Apr-11 12:58N 43°60' E 022°55'2 4.6
2018-Apr-11 12:30N 44°00' E 022°58'4 8.1
2018-Apr-11 12:00N 44°03' E 023°02'4 7.2
2018-Apr-11 11:31N 44°06' E 022°59'4 8.4
2018-Apr-11 11:00N 44°07' E 022°54'4 8.7
2018-Apr-11 10:30N 44°09' E 022°49'4 9.0
2018-Apr-11 10:01N 44°12' E 022°44'3 6.9
2018-Apr-11 09:30N 44°15' E 022°41'4 7.4
2018-Apr-11 09:00N 44°17' E 022°37'2 5.0
2018-Apr-11 08:30N 44°18' E 022°34'2 4.1
2018-Apr-11 08:00N 44°20' E 022°32'4 8.3
2018-Apr-11 07:30N 44°24' E 022°30'4 8.3
2018-Apr-11 07:00N 44°27' E 022°28'3 6.5
2018-Apr-11 06:30N 44°29' E 022°32'4 8.4
2018-Apr-11 06:00N 44°32' E 022°34'4 7.9
2018-Apr-11 05:30N 44°32' E 022°40'4 8.5
2018-Apr-11 05:00N 44°32' E 022°46'4 9.0
2018-Apr-11 04:30N 44°36' E 022°43'3 6.8
2018-Apr-11 04:00N 44°37' E 022°38'0 0.0
2018-Apr-11 03:30N 44°37' E 022°38'0 0.0
2018-Apr-11 03:00N 44°37' E 022°38'0 0.0
2018-Apr-11 02:30N 44°37' E 022°38'0 0.0
2018-Apr-11 02:00N 44°37' E 022°38'0 0.0
2018-Apr-11 01:30N 44°37' E 022°38'0 0.0
2018-Apr-11 01:00N 44°37' E 022°38'0 0.0
2018-Apr-11 00:30N 44°37' E 022°38'0 0.0
2018-Apr-11 00:00N 44°37' E 022°38'0 0.0
2018-Apr-10 23:30N 44°37' E 022°38'0 0.0
2018-Apr-10 23:00N 44°37' E 022°38'0 0.0
2018-Apr-10 22:30N 44°37' E 022°38'0 0.0
2018-Apr-10 22:00N 44°37' E 022°38'0 0.0
2018-Apr-10 21:30N 44°37' E 022°38'0 0.0
2018-Apr-10 21:00N 44°37' E 022°38'0 0.0
2018-Apr-10 20:30N 44°37' E 022°38'0 0.0
2018-Apr-10 20:00N 44°37' E 022°38'0 0.0
2018-Apr-10 19:30N 44°37' E 022°38'0 0.0
2018-Apr-10 19:00N 44°37' E 022°38'0 0.0
2018-Apr-10 18:30N 44°37' E 022°38'0 0.0
2018-Apr-10 18:00N 44°37' E 022°38'0 0.0
2018-Apr-10 17:30N 44°37' E 022°38'0 0.0
2018-Apr-10 17:00N 44°37' E 022°38'0 0.0
2018-Apr-10 16:30N 44°37' E 022°38'0 0.0
2018-Apr-10 16:00N 44°37' E 022°38'0 0.0
2018-Apr-10 15:30N 44°37' E 022°38'0 0.0
2018-Apr-10 15:00N 44°37' E 022°38'0 0.0
2018-Apr-10 14:30N 44°37' E 022°38'0 0.0
2018-Apr-10 14:00N 44°37' E 022°38'0 0.0
2018-Apr-10 13:30N 44°37' E 022°38'0 0.0
2018-Apr-10 13:00N 44°37' E 022°38'0 0.0
2018-Apr-10 12:30N 44°37' E 022°38'0 0.0
2018-Apr-10 12:00N 44°37' E 022°38'0 0.0
2018-Apr-10 11:30N 44°37' E 022°38'0 0.0
2018-Apr-10 11:00N 44°37' E 022°38'  
Track history (hours):
 
Tides and Currents Weather Stations Pressure Air Temp Water Temp Dewpoint Dewpoint Depression Visibility Wind Speed Wind Dir Waves Ship Positions

Pezhoto

Last reported at 2018-Apr-14 06:57 UTC. Time now 2018-Jun-20 23:07 UTC.
Position N 43°51' E 023°16'.
Warning: this ship's position is months out of date.

Length 80 m; draft 2.3 m.

Type: Ship (hazmat cat D). MMSI: 207072277.

Date/timePositionNaut miles runAvg speedWind from/ knotsBaromVisibWave heightAir tempDewpointWater temp
2018-Apr-14 06:57N 43°51' E 023°16'4 7.9
2018-Apr-14 06:28N 43°49' E 023°11'4 7.9
2018-Apr-14 05:57N 43°48' E 023°06'4 7.9
2018-Apr-14 05:29N 43°48' E 023°01'4 7.8
2018-Apr-14 05:00N 43°49' E 022°56'4 7.7
2018-Apr-14 04:30N 43°51' E 022°51'3 5.5
2018-Apr-14 03:59N 43°54' E 022°51'0 0.0
2018-Apr-14 03:30N 43°54' E 022°51'0 0.0
2018-Apr-14 02:58N 43°54' E 022°51'0 0.0
2018-Apr-14 02:30N 43°54' E 022°51'0 0.0
2018-Apr-14 02:00N 43°54' E 022°51'0 0.0
2018-Apr-14 01:29N 43°54' E 022°51'0 0.0
2018-Apr-14 01:01N 43°54' E 022°51'0 0.0
2018-Apr-14 00:28N 43°54' E 022°51'0 0.0
2018-Apr-14 00:00N 43°54' E 022°51'0 0.0
2018-Apr-13 23:30N 43°54' E 022°51'0 0.0
2018-Apr-13 22:59N 43°54' E 022°51'0 0.0
2018-Apr-13 22:26N 43°54' E 022°51'0 0.0
2018-Apr-13 22:01N 43°54' E 022°51'0 0.0
2018-Apr-13 21:26N 43°54' E 022°51'0 0.0
2018-Apr-13 21:00N 43°54' E 022°51'0 0.0
2018-Apr-13 20:30N 43°54' E 022°51'0 0.0
2018-Apr-13 20:00N 43°54' E 022°51'0 0.0
2018-Apr-13 19:30N 43°54' E 022°51'0 0.0
2018-Apr-13 18:57N 43°54' E 022°51'0 0.0
2018-Apr-13 18:31N 43°54' E 022°51'0 0.0
2018-Apr-13 17:59N 43°54' E 022°51'0 0.8
2018-Apr-13 17:30N 43°54' E 022°51'4 7.6
2018-Apr-13 17:00N 43°58' E 022°52'3 5.6
2018-Apr-13 16:30N 43°60' E 022°55'0 0.0
2018-Apr-13 16:00N 43°60' E 022°55'0 0.0
2018-Apr-13 15:30N 43°60' E 022°55'0 0.0
2018-Apr-13 15:00N 43°60' E 022°55'0 0.0
2018-Apr-13 14:30N 43°60' E 022°55'0 0.0
2018-Apr-13 14:00N 43°60' E 022°55'0 0.0
2018-Apr-13 13:30N 43°60' E 022°55'0 0.0
2018-Apr-13 13:00N 43°60' E 022°55'0 0.0
2018-Apr-13 12:30N 43°60' E 022°55'0 0.0
2018-Apr-13 12:00N 43°60' E 022°55'0 0.0
2018-Apr-13 11:00N 43°60' E 022°55'0 0.0
2018-Apr-13 10:30N 43°60' E 022°55'0 0.0
2018-Apr-13 09:49N 43°60' E 022°55'0 0.0
2018-Apr-13 09:28N 43°60' E 022°55'0 0.0
2018-Apr-13 09:00N 43°60' E 022°55'0 0.0
2018-Apr-13 08:30N 43°60' E 022°55'0 0.0
2018-Apr-13 07:59N 43°60' E 022°55'0 0.0
2018-Apr-13 07:30N 43°60' E 022°55'0 0.0
2018-Apr-13 07:00N 43°60' E 022°55'0 0.0
2018-Apr-13 06:30N 43°60' E 022°55'0 0.0
2018-Apr-13 06:00N 43°60' E 022°55'0 0.0
2018-Apr-13 05:29N 43°60' E 022°55'0 0.0
2018-Apr-13 05:00N 43°60' E 022°55'0 0.0
2018-Apr-13 04:30N 43°60' E 022°55'0 0.0
2018-Apr-13 04:00N 43°60' E 022°55'0 0.0
2018-Apr-13 03:29N 43°60' E 022°55'0 0.0
2018-Apr-13 03:00N 43°60' E 022°55'0 0.0
2018-Apr-13 02:29N 43°60' E 022°55'0 0.0
2018-Apr-13 02:00N 43°60' E 022°55'0 0.0
2018-Apr-13 01:30N 43°60' E 022°55'0 0.0
2018-Apr-13 00:59N 43°60' E 022°55'0 0.0
2018-Apr-13 00:30N 43°60' E 022°55'0 0.0
2018-Apr-12 23:58N 43°60' E 022°55'0 0.0
2018-Apr-12 23:30N 43°60' E 022°55'0 0.0
2018-Apr-12 22:55N 43°60' E 022°55'0 0.0
2018-Apr-12 22:11N 43°60' E 022°55'0 0.0
2018-Apr-12 21:40N 43°60' E 022°55'0 0.0
2018-Apr-12 21:30N 43°60' E 022°55'0 0.0
2018-Apr-12 21:00N 43°60' E 022°55'0 0.0
2018-Apr-12 20:30N 43°60' E 022°55'0 0.0
2018-Apr-12 20:00N 43°60' E 022°55'0 0.0
2018-Apr-12 19:30N 43°60' E 022°55'0 0.0
2018-Apr-12 19:00N 43°60' E 022°55'0 0.0
2018-Apr-12 18:29N 43°60' E 022°55'0 0.0
2018-Apr-12 18:00N 43°60' E 022°55'0 0.0
2018-Apr-12 17:30N 43°60' E 022°55'0 0.0
2018-Apr-12 17:00N 43°60' E 022°55'0 0.0
2018-Apr-12 16:31N 43°60' E 022°55'0 0.0
2018-Apr-12 16:01N 43°60' E 022°55'0 0.0
2018-Apr-12 15:30N 43°60' E 022°55'0 0.0
2018-Apr-12 15:00N 43°60' E 022°55'0 0.0
2018-Apr-12 14:30N 43°60' E 022°55'0 0.0
2018-Apr-12 14:00N 43°60' E 022°55'0 0.0
2018-Apr-12 13:30N 43°60' E 022°55'0 0.0
2018-Apr-12 13:00N 43°60' E 022°55'0 0.0
2018-Apr-12 12:25N 43°60' E 022°55'0 0.0
2018-Apr-12 11:57N 43°60' E 022°55'0 0.0
2018-Apr-12 11:16N 43°60' E 022°55'0 0.0
2018-Apr-12 11:00N 43°60' E 022°55'0 0.0
2018-Apr-12 10:30N 43°60' E 022°55'0 0.0
2018-Apr-12 10:00N 43°60' E 022°55'0 0.0
2018-Apr-12 09:30N 43°60' E 022°55'0 0.0
2018-Apr-12 09:00N 43°60' E 022°55'0 0.0
2018-Apr-12 08:30N 43°60' E 022°55'0 0.0
2018-Apr-12 08:01N 43°60' E 022°55'0 0.0
2018-Apr-12 07:30N 43°60' E 022°55'0 0.0
2018-Apr-12 07:00N 43°60' E 022°55'0 0.0
2018-Apr-12 06:30N 43°60' E 022°55'0 0.0
2018-Apr-12 06:01N 43°60' E 022°55'0 0.0
2018-Apr-12 05:30N 43°60' E 022°55'0 0.0
2018-Apr-12 05:01N 43°60' E 022°55'0 0.4
2018-Apr-12 04:30N 43°60' E 022°55'0 0.0
2018-Apr-12 04:00N 43°60' E 022°55'0 0.0
2018-Apr-12 03:30N 43°60' E 022°55'0 0.0
2018-Apr-12 03:00N 43°60' E 022°55'0 0.0
2018-Apr-12 02:30N 43°60' E 022°55'0 0.0
2018-Apr-12 02:00N 43°60' E 022°55'0 0.0
2018-Apr-12 01:30N 43°60' E 022°55'0 0.0
2018-Apr-12 01:00N 43°60' E 022°55'0 0.0
2018-Apr-12 00:30N 43°60' E 022°55'0 0.0
2018-Apr-12 00:00N 43°60' E 022°55'0 0.0
2018-Apr-11 23:30N 43°60' E 022°55'0 0.0
2018-Apr-11 23:00N 43°60' E 022°55'0 0.0
2018-Apr-11 22:30N 43°60' E 022°55'0 0.0
2018-Apr-11 22:00N 43°60' E 022°55'0 0.0
2018-Apr-11 21:30N 43°60' E 022°55'0 0.0
2018-Apr-11 20:59N 43°60' E 022°55'0 0.0
2018-Apr-11 20:30N 43°60' E 022°55'0 0.0
2018-Apr-11 20:00N 43°60' E 022°55'0 0.0
2018-Apr-11 19:30N 43°60' E 022°55'0 0.0
2018-Apr-11 19:00N 43°60' E 022°55'0 0.0
2018-Apr-11 18:30N 43°60' E 022°55'0 0.0
2018-Apr-11 18:00N 43°60' E 022°55'0 0.0
2018-Apr-11 17:30N 43°60' E 022°55'0 0.0
2018-Apr-11 17:00N 43°60' E 022°55'0 0.0
2018-Apr-11 16:30N 43°60' E 022°55'0 0.0
2018-Apr-11 15:59N 43°60' E 022°55'0 0.0
2018-Apr-11 15:30N 43°60' E 022°55'0 0.0
2018-Apr-11 14:59N 43°60' E 022°55'0 0.0
2018-Apr-11 14:26N 43°60' E 022°55'0 0.0
2018-Apr-11 13:58N 43°60' E 022°55'0 0.0
2018-Apr-11 13:30N 43°60' E 022°55'0 0.1
2018-Apr-11 12:58N 43°60' E 022°55'2 4.6
2018-Apr-11 12:30N 44°00' E 022°58'4 8.1
2018-Apr-11 12:00N 44°03' E 023°02'4 7.2
2018-Apr-11 11:31N 44°06' E 022°59'4 8.4
2018-Apr-11 11:00N 44°07' E 022°54'4 8.7
2018-Apr-11 10:30N 44°09' E 022°49'4 9.0
2018-Apr-11 10:01N 44°12' E 022°44'3 6.9
2018-Apr-11 09:30N 44°15' E 022°41'4 7.4
2018-Apr-11 09:00N 44°17' E 022°37'2 5.0
2018-Apr-11 08:30N 44°18' E 022°34'2 4.1
2018-Apr-11 08:00N 44°20' E 022°32'4 8.3
2018-Apr-11 07:30N 44°24' E 022°30'4 8.3
2018-Apr-11 07:00N 44°27' E 022°28'3 6.5
2018-Apr-11 06:30N 44°29' E 022°32'4 8.4
2018-Apr-11 06:00N 44°32' E 022°34'4 7.9
2018-Apr-11 05:30N 44°32' E 022°40'4 8.5
2018-Apr-11 05:00N 44°32' E 022°46'4 9.0
2018-Apr-11 04:30N 44°36' E 022°43'3 6.8
2018-Apr-11 04:00N 44°37' E 022°38'0 0.0
2018-Apr-11 03:30N 44°37' E 022°38'0 0.0
2018-Apr-11 03:00N 44°37' E 022°38'0 0.0
2018-Apr-11 02:30N 44°37' E 022°38'0 0.0
2018-Apr-11 02:00N 44°37' E 022°38'0 0.0
2018-Apr-11 01:30N 44°37' E 022°38'0 0.0
2018-Apr-11 01:00N 44°37' E 022°38'0 0.0
2018-Apr-11 00:30N 44°37' E 022°38'0 0.0
2018-Apr-11 00:00N 44°37' E 022°38'0 0.0
2018-Apr-10 23:30N 44°37' E 022°38'0 0.0
2018-Apr-10 23:00N 44°37' E 022°38'0 0.0
2018-Apr-10 22:30N 44°37' E 022°38'0 0.0
2018-Apr-10 22:00N 44°37' E 022°38'0 0.0
2018-Apr-10 21:30N 44°37' E 022°38'0 0.0
2018-Apr-10 21:00N 44°37' E 022°38'0 0.0
2018-Apr-10 20:30N 44°37' E 022°38'0 0.0
2018-Apr-10 20:00N 44°37' E 022°38'0 0.0
2018-Apr-10 19:30N 44°37' E 022°38'0 0.0
2018-Apr-10 19:00N 44°37' E 022°38'0 0.0
2018-Apr-10 18:30N 44°37' E 022°38'0 0.0
2018-Apr-10 18:00N 44°37' E 022°38'0 0.0
2018-Apr-10 17:30N 44°37' E 022°38'0 0.0
2018-Apr-10 17:00N 44°37' E 022°38'0 0.0
2018-Apr-10 16:30N 44°37' E 022°38'0 0.0
2018-Apr-10 16:00N 44°37' E 022°38'0 0.0
2018-Apr-10 15:30N 44°37' E 022°38'0 0.0
2018-Apr-10 15:00N 44°37' E 022°38'0 0.0
2018-Apr-10 14:30N 44°37' E 022°38'0 0.0
2018-Apr-10 14:00N 44°37' E 022°38'0 0.0
2018-Apr-10 13:30N 44°37' E 022°38'0 0.0
2018-Apr-10 13:00N 44°37' E 022°38'0 0.0
2018-Apr-10 12:30N 44°37' E 022°38'0 0.0
2018-Apr-10 12:00N 44°37' E 022°38'0 0.0
2018-Apr-10 11:30N 44°37' E 022°38'0 0.0
2018-Apr-10 11:00N 44°37' E 022°38'  

Dump ship's entire track history